Time,TemperatureF,DewpointF,PressureIn,WindDirection,WindDirectionDegrees,WindSpeedMPH,WindSpeedGustMPH,Humidity,HourlyPrecipIn,Conditions,Clouds,dailyrainin,SoftwareType,DateUTC
2013-07-08 00:07:00,76.5,75.0,30.05,NNE,30,0.0,-999.0,95,-99.99,,,0.00,weatherlink.com 1.10,2013-07-08 05:07:00,
2013-07-08 00:22:00,76.4,75.0,30.05,NNE,26,4.0,-999.0,96,-99.99,,,0.00,weatherlink.com 1.10,2013-07-08 05:22:00,
2013-07-08 00:37:00,76.1,75.0,30.05,NNE,25,2.0,-999.0,96,-99.99,,,0.00,weatherlink.com 1.10,2013-07-08 05:37:00,
2013-07-08 00:52:00,76.0,75.0,30.04,NE,38,3.0,-999.0,96,-99.99,,,0.00,weatherlink.com 1.10,2013-07-08 05:52:00,
2013-07-08 01:07:00,76.0,75.0,30.04,NE,35,4.0,-999.0,96,-99.99,,,0.00,weatherlink.com 1.10,2013-07-08 06:07:00,
2013-07-08 01:22:00,76.0,75.0,30.04,NNE,31,3.0,-999.0,96,-99.99,,,0.00,weatherlink.com 1.10,2013-07-08 06:22:00,
2013-07-08 01:37:00,75.8,75.0,30.04,NNE,30,3.0,-999.0,96,-99.99,,,0.00,weatherlink.com 1.10,2013-07-08 06:37:00,
2013-07-08 01:52:00,75.8,75.0,30.04,NNE,30,3.0,-999.0,96,-99.99,,,0.00,weatherlink.com 1.10,2013-07-08 06:52:00,
2013-07-08 02:07:00,75.7,75.0,30.03,NNE,30,1.0,-999.0,96,-99.99,,,0.00,weatherlink.com 1.10,2013-07-08 07:07:00,
2013-07-08 02:22:00,75.6,74.0,30.03,NNE,30,0.0,-999.0,96,-99.99,,,0.00,weatherlink.com 1.10,2013-07-08 07:22:00,
2013-07-08 02:37:00,75.7,75.0,30.03,NE,41,4.0,-999.0,97,-99.99,,,0.00,weatherlink.com 1.10,2013-07-08 07:37:00,
2013-07-08 02:53:00,75.4,74.0,30.03,NE,36,5.0,-999.0,96,-99.99,,,0.00,weatherlink.com 1.10,2013-07-08 07:53:00,
2013-07-08 03:08:00,75.3,74.0,30.03,NNE,32,7.0,-999.0,97,-99.99,,,0.00,weatherlink.com 1.10,2013-07-08 08:08:00,
2013-07-08 03:23:00,75.2,74.0,30.03,NNE,30,3.0,-999.0,97,-99.99,,,0.00,weatherlink.com 1.10,2013-07-08 08:23:00,
2013-07-08 03:38:00,75.0,74.0,30.04,NE,35,3.0,-999.0,97,-99.99,,,0.00,weatherlink.com 1.10,2013-07-08 08:38:00,
2013-07-08 03:53:00,74.9,74.0,30.04,NNE,32,2.0,-999.0,97,-99.99,,,0.00,weatherlink.com 1.10,2013-07-08 08:53:00,
2013-07-08 04:08:00,74.9,74.0,30.04,NE,36,2.0,-999.0,97,-99.99,,,0.00,weatherlink.com 1.10,2013-07-08 09:08:00,
2013-07-08 04:23:00,74.8,74.0,30.04,NE,36,0.0,-999.0,97,-99.99,,,0.00,weatherlink.com 1.10,2013-07-08 09:23:00,
2013-07-08 04:38:00,74.8,74.0,30.04,NE,36,4.0,-999.0,97,-99.99,,,0.00,weatherlink.com 1.10,2013-07-08 09:38:00,
2013-07-08 04:53:00,74.6,74.0,30.04,NE,35,3.0,-999.0,97,-99.99,,,0.00,weatherlink.com 1.10,2013-07-08 09:53:00,
2013-07-08 05:08:00,74.7,74.0,30.05,NNE,32,4.0,-999.0,97,-99.99,,,0.00,weatherlink.com 1.10,2013-07-08 10:08:00,
2013-07-08 05:23:00,74.5,74.0,30.05,NE,34,1.0,-999.0,97,-99.99,,,0.00,weatherlink.com 1.10,2013-07-08 10:23:00,
2013-07-08 05:38:00,74.3,74.0,30.05,NE,47,4.0,-999.0,98,-99.99,,,0.00,weatherlink.com 1.10,2013-07-08 10:38:00,
2013-07-08 05:54:00,74.4,74.0,30.05,NE,40,7.0,-999.0,98,-99.99,,,0.00,weatherlink.com 1.10,2013-07-08 10:54:00,
2013-07-08 06:09:00,74.4,74.0,30.05,NNE,30,4.0,-999.0,98,-99.99,,,0.00,weatherlink.com 1.10,2013-07-08 11:09:00,
2013-07-08 06:24:00,74.3,73.0,30.06,NNE,30,2.0,-999.0,97,-99.99,,,0.00,weatherlink.com 1.10,2013-07-08 11:24:00,
2013-07-08 06:39:00,74.2,73.0,30.06,NNE,17,5.0,-999.0,97,-99.99,,,0.00,weatherlink.com 1.10,2013-07-08 11:39:00,
2013-07-08 06:54:00,74.3,73.0,30.06,NNE,24,5.0,-999.0,97,-99.99,,,0.00,weatherlink.com 1.10,2013-07-08 11:54:00,
2013-07-08 07:09:00,74.4,74.0,30.06,NNE,28,3.0,-999.0,98,-99.99,,,0.00,weatherlink.com 1.10,2013-07-08 12:09:00,
2013-07-08 07:24:00,74.6,74.0,30.06,ENE,62,7.0,-999.0,97,-99.99,,,0.00,weatherlink.com 1.10,2013-07-08 12:24:00,
2013-07-08 07:39:00,74.8,74.0,30.06,ENE,64,5.0,-999.0,97,-99.99,,,0.00,weatherlink.com 1.10,2013-07-08 12:39:00,
2013-07-08 07:54:00,75.1,74.0,30.07,ENE,64,0.0,-999.0,97,-99.99,,,0.00,weatherlink.com 1.10,2013-07-08 12:54:00,
2013-07-08 08:09:00,75.4,75.0,30.07,ENE,64,3.0,-999.0,97,-99.99,,,0.00,weatherlink.com 1.10,2013-07-08 13:09:00,
2013-07-08 08:24:00,75.8,75.0,30.07,ENE,64,2.0,-999.0,96,-99.99,,,0.00,weatherlink.com 1.10,2013-07-08 13:24:00,
2013-07-08 08:39:00,76.6,75.0,30.08,ENE,64,2.0,-999.0,96,-99.99,,,0.00,weatherlink.com 1.10,2013-07-08 13:39:00,
2013-07-08 08:55:00,77.6,76.0,30.08,ENE,64,2.0,-999.0,93,-99.99,,,0.00,weatherlink.com 1.10,2013-07-08 13:55:00,
2013-07-08 09:10:00,78.9,76.0,30.09,ENE,64,2.0,-999.0,91,-99.99,,,0.00,weatherlink.com 1.10,2013-07-08 14:10:00,
2013-07-08 09:25:00,79.0,76.0,30.09,ENE,64,2.0,-999.0,89,-99.99,,,0.00,weatherlink.com 1.10,2013-07-08 14:25:00,
2013-07-08 09:40:00,78.7,76.0,30.09,ENE,64,1.0,-999.0,90,-99.99,,,0.00,weatherlink.com 1.10,2013-07-08 14:40:00,
2013-07-08 09:55:00,78.5,76.0,30.10,South,171,4.0,-999.0,91,-99.99,,,0.00,weatherlink.com 1.10,2013-07-08 14:55:00,
2013-07-08 10:10:00,79.7,77.0,30.09,ESE,119,2.0,-999.0,90,-99.99,,,0.00,weatherlink.com 1.10,2013-07-08 15:10:00,
2013-07-08 10:25:00,80.3,77.0,30.09,SE,132,6.0,-999.0,89,-99.99,,,0.00,weatherlink.com 1.10,2013-07-08 15:25:00,
2013-07-08 10:40:00,80.2,77.0,30.09,SE,136,4.0,-999.0,89,-99.99,,,0.00,weatherlink.com 1.10,2013-07-08 15:40:00,
2013-07-08 10:55:00,80.2,77.0,30.09,SSE,148,6.0,-999.0,89,-99.99,,,0.00,weatherlink.com 1.10,2013-07-08 15:55:00,
2013-07-08 11:10:00,80.1,77.0,30.09,SSE,149,5.0,-999.0,89,-99.99,,,0.00,weatherlink.com 1.10,2013-07-08 16:10:00,
2013-07-08 11:26:00,79.9,77.0,30.09,SSE,158,5.0,-999.0,89,-99.99,,,0.00,weatherlink.com 1.10,2013-07-08 16:26:00,
2013-07-08 11:41:00,79.9,77.0,30.09,SSE,163,4.0,-999.0,89,-99.99,,,0.00,weatherlink.com 1.10,2013-07-08 16:41:00,
2013-07-08 11:56:00,80.0,77.0,30.09,SSE,163,3.0,-999.0,90,-99.99,,,0.00,weatherlink.com 1.10,2013-07-08 16:56:00,
2013-07-08 12:11:00,80.1,77.0,30.09,SSE,167,3.0,-999.0,89,-99.99,,,0.00,weatherlink.com 1.10,2013-07-08 17:11:00,
2013-07-08 12:41:00,81.4,77.0,30.08,SSE,167,4.0,-999.0,85,-99.99,,,0.00,weatherlink.com 1.10,2013-07-08 17:41:00,
2013-07-08 12:56:00,81.9,76.0,30.08,SSE,164,6.0,-999.0,83,-99.99,,,0.00,weatherlink.com 1.10,2013-07-08 17:56:00,
2013-07-08 13:11:00,82.2,76.0,30.07,SSE,165,7.0,-999.0,82,-99.99,,,0.00,weatherlink.com 1.10,2013-07-08 18:11:00,
2013-07-08 13:26:00,82.3,77.0,30.07,South,169,6.0,-999.0,83,-99.99,,,0.00,weatherlink.com 1.10,2013-07-08 18:26:00,
2013-07-08 13:56:00,82.7,77.0,30.06,South,188,10.0,-999.0,83,-99.99,,,0.00,weatherlink.com 1.10,2013-07-08 18:56:00,
2013-07-08 14:11:00,82.2,77.0,30.05,SSE,168,9.0,-999.0,83,-99.99,,,0.00,weatherlink.com 1.10,2013-07-08 19:11:00,
2013-07-08 14:42:00,82.4,76.0,30.05,South,191,13.0,-999.0,80,-99.99,,,0.00,weatherlink.com 1.10,2013-07-08 19:42:00,
2013-07-08 14:57:00,82.3,76.0,30.05,SSW,198,11.0,-999.0,81,-99.99,,,0.00,weatherlink.com 1.10,2013-07-08 19:57:00,
2013-07-08 15:57:00,81.6,76.0,30.04,SW,219,12.0,-999.0,84,-99.99,,,0.00,weatherlink.com 1.10,2013-07-08 20:57:00,
2013-07-08 16:42:00,81.7,77.0,30.05,SW,225,11.0,-999.0,84,-99.99,,,0.00,weatherlink.com 1.10,2013-07-08 21:42:00,
2013-07-08 16:57:00,81.6,76.0,30.05,SW,215,12.0,-999.0,84,-99.99,,,0.00,weatherlink.com 1.10,2013-07-08 21:57:00,
2013-07-08 17:12:00,81.5,77.0,30.05,SSW,211,11.0,-999.0,87,-99.99,,,0.00,weatherlink.com 1.10,2013-07-08 22:12:00,
2013-07-08 17:28:00,81.4,77.0,30.06,WSW,240,4.0,-999.0,86,-99.99,,,0.00,weatherlink.com 1.10,2013-07-08 22:28:00,
2013-07-08 17:58:00,81.4,78.0,30.05,SW,218,11.0,-999.0,88,-99.99,,,0.00,weatherlink.com 1.10,2013-07-08 22:58:00,
2013-07-08 18:13:00,81.2,77.0,30.04,SSW,213,10.0,-999.0,87,-99.99,,,0.00,weatherlink.com 1.10,2013-07-08 23:13:00,
2013-07-08 18:28:00,81.2,77.0,30.05,SW,221,7.0,-999.0,87,-99.99,,,0.00,weatherlink.com 1.10,2013-07-08 23:28:00,
2013-07-08 18:43:00,81.2,77.0,30.04,SW,227,4.0,-999.0,87,-99.99,,,0.00,weatherlink.com 1.10,2013-07-08 23:43:00,
2013-07-08 19:13:00,81.0,77.0,30.04,SW,225,4.0,-999.0,88,-99.99,,,0.00,weatherlink.com 1.10,2013-07-09 00:13:00,
2013-07-08 19:28:00,80.8,77.0,30.05,SW,234,2.0,-999.0,87,-99.99,,,0.00,weatherlink.com 1.10,2013-07-09 00:28:00,
2013-07-08 19:43:00,80.9,77.0,30.05,WSW,238,3.0,-999.0,87,-99.99,,,0.00,weatherlink.com 1.10,2013-07-09 00:43:00,
2013-07-08 20:14:00,80.5,77.0,30.06,WSW,239,0.0,-999.0,88,-99.99,,,0.00,weatherlink.com 1.10,2013-07-09 01:14:00,
2013-07-08 20:29:00,80.0,76.0,30.07,WSW,239,0.0,-999.0,88,-99.99,,,0.00,weatherlink.com 1.10,2013-07-09 01:29:00,
2013-07-08 20:44:00,79.6,76.0,30.06,WSW,239,0.0,-999.0,89,-99.99,,,0.00,weatherlink.com 1.10,2013-07-09 01:44:00,
2013-07-08 20:59:00,79.2,76.0,30.07,WSW,239,0.0,-999.0,90,-99.99,,,0.00,weatherlink.com 1.10,2013-07-09 01:59:00,
2013-07-08 22:29:00,77.3,75.0,30.09,NE,42,0.0,-999.0,93,-99.99,,,0.00,weatherlink.com 1.10,2013-07-09 03:29:00,
2013-07-08 22:44:00,76.9,75.0,30.09,NE,42,0.0,-999.0,94,-99.99,,,0.00,weatherlink.com 1.10,2013-07-09 03:44:00,
2013-07-08 23:15:00,76.4,75.0,30.09,NE,42,2.0,-999.0,95,-99.99,,,0.00,weatherlink.com 1.10,2013-07-09 04:15:00,
2013-07-08 23:30:00,76.1,75.0,30.09,NE,39,0.0,-999.0,95,-99.99,,,0.00,weatherlink.com 1.10,2013-07-09 04:30:00,
2013-07-08 23:45:00,75.8,74.0,30.08,NE,39,0.0,-999.0,95,-99.99,,,0.00,weatherlink.com 1.10,2013-07-09 04:45:00,